Kings Langley, United Kingdom
Current Conditions -  °F | °C
As of 12:50 AM on Thursday 18 Dec 2014 (Local Time) from EGWU Reporting Station
Overcast Overcast  
Wind Chill: 12°   Ceiling: 1200
Heat Index: 12°   Visibility: 6mi
Dew Point: 11°   Wind: 15mph
Humidity: 94%   Direction: 260°W
Pressure: 29.77"   Gusts: NA
Location:  51.71°N, 0.45°W
Report Text: EGWU 180050Z AUTO 26013KT 9999 // OVC012/// 12/11 Q1008
Loading
Personal Weather Stations






























Interactive Weather Map New forecast layout! Learn more

10-Day Weather Forecast

Advertisements
Track Severe Weather on mobile